createdAt,value
2022-09-24T20:39:12.568Z,59.90
2022-09-24T20:41:43.169Z,62.10
2022-09-24T20:44:12.118Z,63.10
2022-09-24T20:46:40.887Z,61.90
2022-09-24T20:49:17.226Z,65.93
2022-09-24T20:51:45.868Z,58.67
2022-09-24T20:54:15.942Z,61.70
2022-09-24T20:56:45.318Z,61.03
2022-09-24T20:59:14.255Z,65.77
2022-09-24T21:01:43.257Z,65.43
2022-09-24T21:04:12.044Z,61.97
2022-09-24T21:06:40.856Z,67.50
2022-09-24T21:09:09.569Z,68.00
2022-09-24T21:11:39.569Z,63.80
2022-09-24T21:14:12.930Z,62.70
2022-09-24T21:16:41.588Z,58.17
2022-09-24T21:19:10.309Z,63.57
2022-09-24T21:21:40.833Z,70.33
2022-09-24T21:24:13.983Z,64.47
2022-09-24T21:26:45.696Z,70.70
2022-09-24T21:29:18.122Z,69.00
2022-09-24T21:31:48.821Z,70.03
2022-09-24T21:34:21.031Z,64.43
2022-09-24T21:36:52.083Z,68.30
2022-09-24T21:39:23.578Z,72.47
2022-09-24T21:53:00.090Z,64.30
2022-09-24T21:55:30.518Z,75.33
2022-09-24T21:57:59.561Z,69.80
2022-09-24T22:00:28.377Z,64.33
2022-09-24T22:02:57.275Z,71.87
2022-09-24T22:05:26.023Z,72.50
2022-09-24T22:07:56.247Z,71.30
2022-09-24T22:10:26.777Z,71.43
2022-09-24T22:12:55.503Z,73.57
2022-09-24T22:15:24.272Z,79.13
2022-09-24T22:17:52.922Z,85.20
2022-09-24T22:20:21.546Z,85.10
2022-09-24T22:22:51.566Z,83.70
2022-09-24T22:25:20.321Z,101.83
2022-09-24T22:27:50.299Z,81.57
2022-09-24T22:30:19.115Z,91.60
2022-09-24T22:32:48.242Z,76.80
2022-09-24T22:35:36.418Z,78.33
2022-09-24T22:38:07.047Z,93.33
2022-09-24T22:40:36.719Z,86.23
2022-09-24T22:43:06.706Z,83.13
2022-09-24T22:45:35.284Z,104.80
2022-09-24T22:48:04.257Z,81.13
2022-09-24T22:50:32.905Z,90.23
2022-09-24T22:53:02.106Z,87.23
2022-09-24T22:55:31.200Z,100.47
2022-09-24T22:57:59.872Z,83.50
2022-09-24T23:00:30.217Z,95.60
2022-09-24T23:02:58.797Z,78.30
2022-09-24T23:05:28.899Z,95.83
2022-09-24T23:07:57.705Z,90.13
2022-09-24T23:10:30.127Z,94.67
2022-09-24T23:12:58.920Z,90.97
2022-09-24T23:15:28.991Z,93.43
2022-09-24T23:17:57.674Z,99.13
2022-09-24T23:20:27.337Z,85.60
2022-09-24T23:22:56.041Z,91.23
2022-09-24T23:25:24.628Z,83.50
2022-09-24T23:27:53.321Z,86.40
2022-09-24T23:30:22.581Z,93.60
2022-09-24T23:32:55.424Z,86.53
2022-09-24T23:35:24.074Z,91.60
2022-09-24T23:37:52.852Z,89.57
2022-09-24T23:40:21.460Z,84.63
2022-09-24T23:42:50.722Z,91.20
2022-09-24T23:45:19.288Z,93.77
2022-09-24T23:47:47.854Z,98.50
2022-09-24T23:50:17.997Z,116.47
2022-09-24T23:52:46.825Z,101.40
2022-09-24T23:55:15.450Z,107.57
2022-09-24T23:57:43.993Z,105.73
